createdAt,value
2018-03-22T00:01:36.988Z,101780.61
2018-03-22T00:04:04.629Z,101778.42
2018-03-22T00:06:32.246Z,101776.26
2018-03-22T00:08:59.890Z,101771.56
2018-03-22T00:11:27.532Z,101773.25
2018-03-22T00:13:55.200Z,101771.56
2018-03-22T00:16:22.912Z,101768.12
2018-03-22T00:18:50.573Z,101767.72
2018-03-22T00:21:18.188Z,101765.95
2018-03-22T00:23:45.829Z,101758.73
2018-03-22T00:26:13.441Z,101755.73
2018-03-22T00:28:41.077Z,101753.61
2018-03-22T00:31:08.695Z,101746.64
2018-03-22T00:33:36.449Z,101743.31
2018-03-22T00:36:04.065Z,101737.77
2018-03-22T00:38:31.778Z,101727.51
2018-03-22T00:40:59.451Z,101724.47
2018-03-22T00:43:27.100Z,101717.98
2018-03-22T00:45:54.765Z,101707.25
2018-03-22T00:48:22.396Z,101701.58
2018-03-22T00:50:50.012Z,101698.58
2018-03-22T00:53:17.653Z,101698.03
2018-03-22T00:55:45.265Z,101694.52
2018-03-22T00:58:12.909Z,101678.29
2018-03-22T01:00:40.534Z,101678.15
2018-03-22T01:03:08.202Z,101665.29
2018-03-22T01:05:35.837Z,101657.97
2018-03-22T01:08:03.453Z,101657.53
2018-03-22T01:10:31.105Z,101645.95
2018-03-22T01:12:58.726Z,101644.63
2018-03-22T01:15:26.407Z,101633.46
2018-03-22T01:17:54.031Z,101622.77
2018-03-22T01:20:21.737Z,101624.89
2018-03-22T01:22:49.405Z,101615.84
2018-03-22T01:25:17.041Z,101608.08
2018-03-22T01:27:44.720Z,101605.52
2018-03-22T01:30:24.260Z,101603.77
2018-03-22T01:32:51.873Z,101596.91
2018-03-22T01:35:19.588Z,101598.12
2018-03-22T01:37:47.213Z,101592.19
2018-03-22T01:40:14.848Z,101589.56
2018-03-22T01:42:42.462Z,101580.14
2018-03-22T01:45:10.104Z,101575.83
2018-03-22T01:47:37.806Z,101570.25
2018-03-22T01:50:05.436Z,101566.78
2018-03-22T01:52:33.053Z,101565.56
2018-03-22T01:55:00.699Z,101552.74
2018-03-22T01:57:28.316Z,101543.77
2018-03-22T01:59:55.953Z,101538.70
2018-03-22T02:02:23.573Z,101538.67
2018-03-22T02:04:51.217Z,101528.81
2018-03-22T02:07:18.823Z,101526.25
2018-03-22T02:09:46.562Z,101520.28
2018-03-22T02:12:14.177Z,101514.30
2018-03-22T02:14:41.879Z,101506.20
2018-03-22T02:17:09.548Z,101501.95
2018-03-22T02:19:37.192Z,101503.23
2018-03-22T02:22:04.805Z,101487.51
2018-03-22T02:24:32.536Z,101483.19
2018-03-22T02:27:00.148Z,101476.78
2018-03-22T02:29:27.866Z,101461.83
2018-03-22T02:31:55.533Z,101448.09
2018-03-22T02:34:23.182Z,101446.38
2018-03-22T02:36:50.852Z,101443.34
2018-03-22T02:39:18.470Z,101440.75
2018-03-22T02:41:46.104Z,101442.81
2018-03-22T02:44:13.746Z,101438.48
2018-03-22T02:46:41.403Z,101435.89
2018-03-22T02:49:09.017Z,101432.05
2018-03-22T02:51:36.662Z,101424.80
2018-03-22T02:54:04.285Z,101416.19
2018-03-22T02:56:31.912Z,101422.98
2018-03-22T02:58:59.539Z,101413.56
2018-03-22T03:01:27.273Z,101407.16
2018-03-22T03:03:54.890Z,101393.83
2018-03-22T03:06:22.592Z,101387.05
2018-03-22T03:08:50.264Z,101378.98
2018-03-22T03:11:17.904Z,101380.26
2018-03-22T03:13:45.549Z,101374.28
2018-03-22T03:16:13.246Z,101366.59
2018-03-22T03:18:40.848Z,101357.59
2018-03-22T03:21:08.481Z,101361.44
2018-03-22T03:23:36.102Z,101365.28
2018-03-22T03:26:03.753Z,101371.28
2018-03-22T03:28:31.465Z,101358.43
2018-03-22T03:30:59.139Z,101358.02
2018-03-22T03:33:26.801Z,101355.46
2018-03-22T03:35:54.457Z,101353.36
2018-03-22T03:38:22.069Z,101353.84
2018-03-22T03:40:49.708Z,101343.52
2018-03-22T03:43:17.316Z,101341.83
2018-03-22T03:45:44.991Z,101330.34
2018-03-22T03:48:12.668Z,101317.53
2018-03-22T03:50:40.290Z,101320.09
2018-03-22T03:53:07.925Z,101307.27
2018-03-22T03:55:35.653Z,101305.92
2018-03-22T03:58:03.317Z,101299.08
2018-03-22T04:00:30.980Z,101290.95
2018-03-22T04:02:58.608Z,101281.91
2018-03-22T04:05:26.229Z,101288.76
2018-03-22T04:07:53.869Z,101274.59
2018-03-22T04:10:21.533Z,101278.84
2018-03-22T04:12:49.166Z,101275.41
2018-03-22T04:15:16.843Z,101268.06
2018-03-22T04:17:44.515Z,101276.59
2018-03-22T04:20:12.131Z,101279.12
2018-03-22T04:22:39.777Z,101278.78
2018-03-22T04:25:07.391Z,101269.28
2018-03-22T04:27:35.032Z,101265.00
2018-03-22T04:30:02.649Z,101253.39
2018-03-22T04:32:30.379Z,101243.92
2018-03-22T04:34:57.997Z,101233.58
2018-03-22T04:37:25.637Z,101243.27
2018-03-22T04:39:53.253Z,101235.02
2018-03-22T04:42:20.893Z,101233.50
2018-03-22T04:44:48.600Z,101231.16
2018-03-22T04:47:16.246Z,101225.72
2018-03-22T04:49:43.869Z,101220.31
2018-03-22T04:52:11.581Z,101223.06
2018-03-22T04:54:39.192Z,101209.63
2018-03-22T04:57:06.918Z,101193.66
2018-03-22T04:59:34.528Z,101192.60
2018-03-22T05:02:02.148Z,101198.48
2018-03-22T05:04:29.801Z,101191.61
2018-03-22T05:06:57.431Z,101186.89
2018-03-22T05:09:25.068Z,101188.89
2018-03-22T05:11:52.761Z,101185.36
2018-03-22T05:14:20.456Z,101181.39
2018-03-22T05:16:48.064Z,101170.17
2018-03-22T05:19:15.771Z,101159.46
2018-03-22T05:21:43.392Z,101152.53
2018-03-22T05:24:11.032Z,101145.25
2018-03-22T05:26:38.643Z,101133.69
2018-03-22T05:29:06.316Z,101129.76
2018-03-22T05:31:33.948Z,101123.76
2018-03-22T05:34:01.649Z,101124.10
2018-03-22T05:36:29.280Z,101109.55
2018-03-22T05:38:57.071Z,101111.23
2018-03-22T05:41:24.685Z,101092.40
2018-03-22T05:43:52.443Z,101085.19
2018-03-22T05:46:20.168Z,101083.06
2018-03-22T05:48:47.805Z,101073.28
2018-03-22T05:51:15.419Z,101067.73
2018-03-22T05:53:44.697Z,101066.45
2018-03-22T05:56:12.366Z,101054.36
2018-03-22T05:58:39.997Z,101059.05
2018-03-22T06:01:07.613Z,101052.62
2018-03-22T06:03:35.249Z,101049.59
2018-03-22T06:06:02.861Z,101046.97
2018-03-22T06:08:30.491Z,101044.34
2018-03-22T06:10:58.109Z,101039.16
2018-03-22T06:13:25.792Z,101034.45
2018-03-22T06:15:53.405Z,101025.05
2018-03-22T06:18:21.120Z,101016.95
2018-03-22T06:20:48.766Z,101009.63
2018-03-22T06:23:16.537Z,101004.47
2018-03-22T06:25:44.231Z,101002.25
2018-03-22T06:28:11.864Z,100992.02
2018-03-22T06:30:39.537Z,100989.86
2018-03-22T06:33:07.193Z,100984.27
2018-03-22T06:35:34.833Z,100980.84
2018-03-22T06:38:02.448Z,100970.16
2018-03-22T06:40:30.184Z,100965.48
2018-03-22T06:42:57.844Z,100959.63
2018-03-22T06:45:25.505Z,100960.84
2018-03-22T06:47:53.112Z,100953.55
2018-03-22T06:50:20.829Z,100947.92
2018-03-22T06:52:48.441Z,100939.31
2018-03-22T06:55:16.163Z,100941.81
2018-03-22T06:57:43.825Z,100932.73
2018-03-22T07:00:11.460Z,100933.09
2018-03-22T07:02:39.148Z,100925.23
2018-03-22T07:05:06.787Z,100923.91
2018-03-22T07:07:34.468Z,100922.17
2018-03-22T07:10:02.232Z,100917.92
2018-03-22T07:12:29.902Z,100922.66
2018-03-22T07:14:57.527Z,100912.48
2018-03-22T07:17:25.232Z,100903.55
2018-03-22T07:19:52.875Z,100906.67
2018-03-22T07:22:20.515Z,100905.94
2018-03-22T07:24:48.221Z,100895.81
2018-03-22T07:27:15.828Z,100887.44
2018-03-22T07:29:43.534Z,100886.80
2018-03-22T07:32:11.150Z,100884.95
2018-03-22T07:34:38.765Z,100872.48
2018-03-22T07:37:06.430Z,100871.84
2018-03-22T07:39:34.044Z,100871.58
2018-03-22T07:42:01.681Z,100868.72
2018-03-22T07:44:34.909Z,100867.55
2018-03-22T07:47:02.600Z,100864.14
2018-03-22T07:49:30.264Z,100860.39
2018-03-22T07:51:57.913Z,100858.64
2018-03-22T07:54:25.595Z,100856.87
2018-03-22T07:56:53.266Z,100850.05
2018-03-22T07:59:20.874Z,100853.05
2018-03-22T08:01:48.580Z,100857.39
2018-03-22T08:04:16.193Z,100832.23
2018-03-22T08:06:43.819Z,100832.75
2018-03-22T08:09:11.567Z,100843.46
2018-03-22T08:11:39.730Z,100829.91
2018-03-22T08:14:07.347Z,100832.65
2018-03-22T08:16:35.081Z,100831.48
2018-03-22T08:19:02.698Z,100831.86
2018-03-22T08:21:30.401Z,100829.13
2018-03-22T08:23:58.011Z,100830.27
2018-03-22T08:26:25.646Z,100829.87
2018-03-22T08:28:53.269Z,100834.55
2018-03-22T08:31:20.953Z,100829.89
2018-03-22T08:33:48.612Z,100827.73
2018-03-22T08:36:16.334Z,100822.75
2018-03-22T08:38:43.943Z,100819.59
2018-03-22T08:41:11.618Z,100815.50
2018-03-22T08:43:39.358Z,100813.84
2018-03-22T08:46:06.973Z,100817.45
2018-03-22T08:48:34.599Z,100812.75
2018-03-22T08:51:02.208Z,100811.88
2018-03-22T08:53:29.841Z,100818.30
2018-03-22T08:55:57.481Z,100820.16
2018-03-22T08:58:25.141Z,100812.70
2018-03-22T09:00:52.757Z,100814.17
2018-03-22T09:03:20.384Z,100798.52
2018-03-22T09:05:47.998Z,100815.39
2018-03-22T09:08:15.689Z,100801.16
2018-03-22T09:10:43.344Z,100809.66
2018-03-22T09:13:11.017Z,100815.25
2018-03-22T09:15:38.620Z,100816.15
2018-03-22T09:18:06.328Z,100807.20
2018-03-22T09:20:33.936Z,100801.20
2018-03-22T09:23:01.573Z,100787.09
2018-03-22T09:25:29.229Z,100786.74
2018-03-22T09:27:56.856Z,100794.89
2018-03-22T09:30:24.464Z,100789.79
2018-03-22T09:32:52.107Z,100786.11
2018-03-22T09:35:19.723Z,100790.10
2018-03-22T09:37:47.427Z,100780.38
2018-03-22T09:40:15.105Z,100783.90
2018-03-22T09:42:42.741Z,100787.75
2018-03-22T09:45:10.357Z,100786.44
2018-03-22T09:47:37.988Z,100793.27
2018-03-22T09:50:05.650Z,100785.19
2018-03-22T09:52:33.289Z,100794.62
2018-03-22T09:55:00.972Z,100786.64
2018-03-22T09:57:28.626Z,100790.23
2018-03-22T09:59:56.256Z,100789.13
2018-03-22T10:02:23.925Z,100782.08
2018-03-22T10:04:51.625Z,100783.91
2018-03-22T10:07:19.249Z,100786.25
2018-03-22T10:09:46.948Z,100791.09
2018-03-22T10:12:14.603Z,100794.17
2018-03-22T10:14:42.244Z,100786.58
2018-03-22T10:17:09.934Z,100781.56
2018-03-22T10:19:37.564Z,100779.48
2018-03-22T10:22:05.200Z,100778.69
2018-03-22T10:24:32.845Z,100780.06
2018-03-22T10:27:00.492Z,100780.99
2018-03-22T10:29:28.129Z,100776.41
2018-03-22T10:31:55.813Z,100772.27
2018-03-22T10:34:23.448Z,100762.59
2018-03-22T10:36:51.056Z,100766.05
2018-03-22T10:39:18.693Z,100770.84
2018-03-22T10:41:46.311Z,100758.88
2018-03-22T10:44:13.944Z,100760.68
2018-03-22T10:46:41.575Z,100749.48
2018-03-22T10:49:09.217Z,100761.94
2018-03-22T10:51:36.833Z,100759.91
2018-03-22T10:54:04.576Z,100757.77
2018-03-22T10:56:32.183Z,100748.73
2018-03-22T10:58:59.821Z,100755.64
2018-03-22T11:01:33.112Z,100744.96
2018-03-22T11:04:07.568Z,100748.83
2018-03-22T11:06:35.277Z,100747.53
2018-03-22T11:09:02.913Z,100748.45
2018-03-22T11:11:30.523Z,100741.28
2018-03-22T11:13:58.185Z,100747.33
2018-03-22T11:16:25.816Z,100747.38
2018-03-22T11:18:53.436Z,100745.23
2018-03-22T11:21:21.067Z,100732.77
2018-03-22T11:23:48.703Z,100737.47
2018-03-22T11:26:16.341Z,100736.17
2018-03-22T11:28:43.955Z,100737.45
2018-03-22T11:31:11.700Z,100730.69
2018-03-22T11:33:39.357Z,100729.84
2018-03-22T11:36:06.992Z,100731.13
2018-03-22T11:38:34.605Z,100731.97
2018-03-22T11:41:02.236Z,100725.66
2018-03-22T11:43:29.849Z,100730.83
2018-03-22T11:45:57.479Z,100724.92
2018-03-22T11:48:25.232Z,100721.80
2018-03-22T11:50:52.889Z,100727.60
2018-03-22T11:53:20.565Z,100727.38
2018-03-22T11:55:48.226Z,100727.47
2018-03-22T11:58:15.882Z,100728.39
2018-03-22T12:00:43.517Z,100726.20
2018-03-22T12:03:11.133Z,100725.31
2018-03-22T12:05:38.761Z,100722.31
2018-03-22T12:08:06.439Z,100719.78
2018-03-22T12:10:34.095Z,100724.99
2018-03-22T12:13:01.767Z,100723.30
2018-03-22T12:15:29.520Z,100724.22
2018-03-22T12:17:57.192Z,100720.41
2018-03-22T12:20:24.837Z,100721.33
2018-03-22T12:22:52.453Z,100726.05
2018-03-22T12:25:20.093Z,100722.17
2018-03-22T12:27:47.731Z,100720.59
2018-03-22T12:30:15.370Z,100718.13
2018-03-22T12:32:43.048Z,100717.43
2018-03-22T12:35:10.726Z,100715.42
2018-03-22T12:37:38.371Z,100711.28
2018-03-22T12:40:06.048Z,100718.25
2018-03-22T12:42:33.689Z,100709.77
2018-03-22T12:45:01.382Z,100716.80
2018-03-22T12:47:29.021Z,100706.97
2018-03-22T12:49:56.627Z,100710.05
2018-03-22T12:52:24.375Z,100704.63
2018-03-22T12:54:52.037Z,100703.92
2018-03-22T12:57:19.692Z,100703.25
2018-03-22T12:59:47.356Z,100699.50
2018-03-22T13:02:14.997Z,100700.53
2018-03-22T13:04:42.613Z,100699.88
2018-03-22T13:07:10.335Z,100696.69
2018-03-22T13:09:38.009Z,100707.59
2018-03-22T13:12:05.650Z,100705.22
2018-03-22T13:14:33.259Z,100701.09
2018-03-22T13:17:00.888Z,100696.14
2018-03-22T13:19:28.556Z,100700.58
2018-03-22T13:21:56.225Z,100692.09
2018-03-22T13:24:23.839Z,100696.07
2018-03-22T13:26:51.537Z,100691.08
2018-03-22T13:29:19.209Z,100689.91
2018-03-22T13:31:46.850Z,100683.70
2018-03-22T13:34:14.532Z,100686.88
2018-03-22T13:36:42.169Z,100681.98
2018-03-22T13:39:09.855Z,100683.52
2018-03-22T13:41:37.488Z,100679.93
2018-03-22T13:44:05.095Z,100680.17
2018-03-22T13:46:32.728Z,100678.76
2018-03-22T13:49:00.340Z,100686.69
2018-03-22T13:51:27.953Z,100688.08
2018-03-22T13:53:55.633Z,100683.00
2018-03-22T13:56:23.291Z,100689.52
2018-03-22T13:58:50.969Z,100681.38
2018-03-22T14:01:18.587Z,100683.57
2018-03-22T14:03:46.221Z,100692.18
2018-03-22T14:06:13.833Z,100688.73
2018-03-22T14:08:41.471Z,100687.90
2018-03-22T14:11:09.086Z,100688.02
2018-03-22T14:13:36.720Z,100688.97
2018-03-22T14:16:04.349Z,100690.41
2018-03-22T14:18:31.993Z,100689.23
2018-03-22T14:20:59.712Z,100687.64
2018-03-22T14:23:27.345Z,100682.59
2018-03-22T14:25:54.959Z,100677.87
2018-03-22T14:28:22.594Z,100686.43
2018-03-22T14:30:50.213Z,100685.14
2018-03-22T14:33:17.851Z,100686.44
2018-03-22T14:35:45.490Z,100686.08
2018-03-22T14:38:13.120Z,100681.35
2018-03-22T14:40:40.720Z,100683.92
2018-03-22T14:43:08.373Z,100683.87
2018-03-22T14:45:36.030Z,100685.09
2018-03-22T14:48:03.658Z,100682.07
2018-03-22T14:50:31.280Z,100681.13
2018-03-22T14:52:58.921Z,100680.19
2018-03-22T14:55:26.532Z,100684.34
2018-03-22T14:57:54.248Z,100686.39
2018-03-22T15:00:21.864Z,100683.73
2018-03-22T15:02:49.492Z,100682.82
2018-03-22T15:05:17.109Z,100686.25
2018-03-22T15:07:44.724Z,100691.84
2018-03-22T15:10:12.366Z,100686.30
2018-03-22T15:12:39.976Z,100687.54
2018-03-22T15:15:07.613Z,100690.52
2018-03-22T15:17:35.217Z,100693.88
2018-03-22T15:20:02.909Z,100689.06
2018-03-22T15:22:30.521Z,100693.30
2018-03-22T15:24:58.233Z,100690.66
2018-03-22T15:27:25.898Z,100683.28
2018-03-22T15:29:53.553Z,100684.99
2018-03-22T15:32:21.160Z,100683.25
2018-03-22T15:34:48.787Z,100695.27
2018-03-22T15:37:16.396Z,100691.34
2018-03-22T15:39:44.033Z,100681.03
2018-03-22T15:42:11.636Z,100680.17
2018-03-22T15:44:39.273Z,100685.27
2018-03-22T15:47:06.993Z,100682.27
2018-03-22T15:49:34.632Z,100686.96
2018-03-22T15:52:02.311Z,100688.23
2018-03-22T15:54:30.141Z,100690.76
2018-03-22T15:57:01.848Z,100691.08
2018-03-22T15:59:29.600Z,100694.13
2018-03-22T16:01:57.228Z,100695.36
2018-03-22T16:04:24.864Z,100697.07
2018-03-22T16:06:52.472Z,100698.79
2018-03-22T16:09:20.113Z,100706.09
2018-03-22T16:11:47.911Z,100706.58
2018-03-22T16:14:15.893Z,100717.31
2018-03-22T16:16:43.503Z,100717.30
2018-03-22T16:19:11.131Z,100714.67
2018-03-22T16:21:38.752Z,100714.72
2018-03-22T16:24:06.385Z,100720.73
2018-03-22T16:26:34.096Z,100719.83
2018-03-22T16:29:01.760Z,100718.10
2018-03-22T16:31:29.443Z,100714.23
2018-03-22T16:33:57.095Z,100711.65
2018-03-22T16:36:24.740Z,100718.89
2018-03-22T16:38:52.356Z,100721.88
2018-03-22T16:41:20.085Z,100716.27
2018-03-22T16:43:47.740Z,100723.00
2018-03-22T16:46:15.372Z,100725.91
2018-03-22T16:48:42.983Z,100728.41
2018-03-22T16:51:10.725Z,100723.61
2018-03-22T16:53:39.281Z,100740.31
2018-03-22T16:56:06.916Z,100737.25
2018-03-22T16:58:34.529Z,100736.70
2018-03-22T17:01:02.200Z,100746.86
2018-03-22T17:03:29.812Z,100738.63
2018-03-22T17:05:57.453Z,100749.32
2018-03-22T17:08:25.067Z,100750.55
2018-03-22T17:10:52.701Z,100752.70
2018-03-22T17:13:20.311Z,100751.39
2018-03-22T17:15:47.977Z,100755.17
2018-03-22T17:18:15.597Z,100752.09
2018-03-22T17:20:43.292Z,100749.42
2018-03-22T17:23:10.915Z,100755.73
2018-03-22T17:25:38.557Z,100753.88
2018-03-22T17:28:06.182Z,100759.86
2018-03-22T17:30:33.817Z,100755.48
2018-03-22T17:33:01.503Z,100752.39
2018-03-22T17:35:29.141Z,100760.05
2018-03-22T17:37:56.828Z,100758.23
2018-03-22T17:40:24.505Z,100758.66
2018-03-22T17:42:52.148Z,100758.55
2018-03-22T17:45:19.837Z,100760.62
2018-03-22T17:47:47.489Z,100763.16
2018-03-22T17:50:15.153Z,100763.98
2018-03-22T17:52:42.780Z,100769.45
2018-03-22T17:55:10.394Z,100764.22
2018-03-22T17:57:38.084Z,100762.83
2018-03-22T18:00:05.676Z,100766.65
2018-03-22T18:02:33.312Z,100764.86
2018-03-22T18:05:00.926Z,100765.23
2018-03-22T18:07:28.565Z,100764.75
2018-03-22T18:09:56.251Z,100766.89
2018-03-22T18:12:23.888Z,100767.69
2018-03-22T18:14:51.548Z,100771.89
2018-03-22T18:17:19.184Z,100777.78
2018-03-22T18:19:46.816Z,100774.70
2018-03-22T18:22:14.465Z,100769.86
2018-03-22T18:24:42.077Z,100770.98
2018-03-22T18:27:09.790Z,100782.89
2018-03-22T18:29:37.453Z,100783.63
2018-03-22T18:32:05.164Z,100792.13
2018-03-22T18:34:32.784Z,100795.52
2018-03-22T18:37:00.411Z,100800.92
2018-03-22T18:39:28.100Z,100805.97
2018-03-22T18:41:55.728Z,100816.59
2018-03-22T18:44:23.349Z,100818.62
2018-03-22T18:46:51.089Z,100815.52
2018-03-22T18:49:18.692Z,100816.61
2018-03-22T18:51:46.323Z,100818.99
2018-03-22T18:54:13.941Z,100817.50
2018-03-22T18:56:41.556Z,100821.26
2018-03-22T18:59:09.268Z,100823.25
2018-03-22T19:01:36.961Z,100833.55
2018-03-22T19:04:04.605Z,100835.17
2018-03-22T19:06:32.287Z,100833.72
2018-03-22T19:08:59.929Z,100831.09
2018-03-22T19:11:27.608Z,100836.92
2018-03-22T19:13:55.277Z,100839.05
2018-03-22T19:16:22.880Z,100837.98
2018-03-22T19:18:50.524Z,100832.78
2018-03-22T19:21:18.141Z,100842.91
2018-03-22T19:23:45.775Z,100836.39
2018-03-22T19:26:13.637Z,100835.12
2018-03-22T19:28:41.269Z,100836.31
2018-03-22T19:31:08.901Z,100830.72
2018-03-22T19:33:36.672Z,100829.75
2018-03-22T19:36:04.345Z,100828.81
2018-03-22T19:38:31.975Z,100822.72
2018-03-22T19:40:59.584Z,100808.25
2018-03-22T19:43:27.338Z,100814.27
2018-03-22T19:45:54.987Z,100808.28
2018-03-22T19:48:22.620Z,100803.66
2018-03-22T19:50:50.231Z,100802.80
2018-03-22T19:53:17.871Z,100811.37
2018-03-22T19:55:45.483Z,100814.77
2018-03-22T19:58:13.156Z,100815.09
2018-03-22T20:00:40.776Z,100815.08
2018-03-22T20:03:08.420Z,100820.14
2018-03-22T20:05:36.076Z,100815.31
2018-03-22T20:08:03.685Z,100825.09
2018-03-22T20:10:31.424Z,100821.56
2018-03-22T20:12:59.080Z,100828.39
2018-03-22T20:15:26.768Z,100830.86
2018-03-22T20:17:54.375Z,100826.88
2018-03-22T20:20:22.004Z,100831.05
2018-03-22T20:22:49.628Z,100833.05
2018-03-22T20:25:17.255Z,100838.56
2018-03-22T20:27:44.864Z,100842.75
2018-03-22T20:30:12.501Z,100839.73
2018-03-22T20:32:40.176Z,100840.13
2018-03-22T20:35:07.820Z,100843.05
2018-03-22T20:37:35.436Z,100847.30
2018-03-22T20:40:03.073Z,100848.92
2018-03-22T20:42:30.693Z,100850.10
2018-03-22T20:44:58.389Z,100854.72
2018-03-22T20:47:26.058Z,100853.84
2018-03-22T20:49:53.725Z,100856.31
2018-03-22T20:52:21.337Z,100854.48
2018-03-22T20:54:48.968Z,100859.91
2018-03-22T20:57:16.596Z,100850.36
2018-03-22T20:59:44.228Z,100859.27
2018-03-22T21:02:11.929Z,100855.41
2018-03-22T21:04:39.589Z,100860.42
2018-03-22T21:07:07.253Z,100863.34
2018-03-22T21:09:34.892Z,100864.95
2018-03-22T21:12:02.509Z,100867.87
2018-03-22T21:14:30.139Z,100872.00
2018-03-22T21:16:57.800Z,100872.47
2018-03-22T21:19:25.457Z,100873.23
2018-03-22T21:21:53.133Z,100869.74
2018-03-22T21:24:20.784Z,100874.02
2018-03-22T21:26:48.404Z,100875.17
2018-03-22T21:29:16.024Z,100879.41
2018-03-22T21:31:43.676Z,100887.41
2018-03-22T21:34:11.289Z,100889.44
2018-03-22T21:36:38.929Z,100885.86
2018-03-22T21:39:06.657Z,100889.24
2018-03-22T21:41:34.294Z,100885.86
2018-03-22T21:44:12.638Z,100884.03
2018-03-22T21:46:40.292Z,100882.20
2018-03-22T21:49:07.895Z,100882.51
2018-03-22T21:51:35.633Z,100884.64
2018-03-22T21:54:03.240Z,100885.81
2018-03-22T21:56:30.878Z,100880.63
2018-03-22T21:58:58.499Z,100882.24
2018-03-22T22:01:26.144Z,100887.67
2018-03-22T22:03:53.759Z,100888.44
2018-03-22T22:06:21.389Z,100893.97
2018-03-22T22:08:49.054Z,100894.38
2018-03-22T22:11:16.729Z,100884.05
2018-03-22T22:13:44.335Z,100880.95
2018-03-22T22:16:12.640Z,100874.14
2018-03-22T22:18:40.421Z,100876.35
2018-03-22T22:21:08.097Z,100874.09
2018-03-22T22:23:35.704Z,100875.72
2018-03-22T22:26:03.336Z,100876.13
2018-03-22T22:28:30.985Z,100868.45
2018-03-22T22:30:58.639Z,100864.98
2018-03-22T22:33:26.305Z,100863.20
2018-03-22T22:35:53.957Z,100851.65
2018-03-22T22:38:21.568Z,100855.11
2018-03-22T22:40:49.185Z,100853.39
2018-03-22T22:43:16.820Z,100854.76
2018-03-22T22:45:44.437Z,100855.60
2018-03-22T22:48:12.172Z,100852.20
2018-03-22T22:50:39.843Z,100845.40
2018-03-22T22:53:07.481Z,100846.30
2018-03-22T22:55:35.087Z,100847.61
2018-03-22T22:58:02.724Z,100848.13
2018-03-22T23:00:30.336Z,100849.89
2018-03-22T23:02:57.968Z,100841.75
2018-03-22T23:05:25.572Z,100845.94
2018-03-22T23:07:53.248Z,100850.20
2018-03-22T23:10:20.854Z,100842.92
2018-03-22T23:12:48.601Z,100844.96
2018-03-22T23:15:16.207Z,100844.50
2018-03-22T23:17:43.919Z,100840.55
2018-03-22T23:20:11.593Z,100842.67
2018-03-22T23:22:39.272Z,100839.70
2018-03-22T23:25:06.880Z,100848.70
2018-03-22T23:27:34.571Z,100840.63
2018-03-22T23:30:02.243Z,100845.78
2018-03-22T23:32:29.907Z,100839.35
2018-03-22T23:34:57.521Z,100837.25
2018-03-22T23:37:25.233Z,100834.25
2018-03-22T23:39:52.888Z,100832.55
2018-03-22T23:42:20.526Z,100834.23
2018-03-22T23:44:48.141Z,100838.94
2018-03-22T23:47:15.781Z,100841.53
2018-03-22T23:49:43.391Z,100845.38
2018-03-22T23:52:11.033Z,100844.53
2018-03-22T23:54:38.659Z,100847.09
2018-03-22T23:57:06.316Z,100839.05
2018-03-22T23:59:33.989Z,100839.48
